createdAt,value
2022-09-30T00:01:39.848Z,100764.72
2022-09-30T00:04:14.714Z,100763.88
2022-09-30T00:06:42.866Z,100762.16
2022-09-30T00:09:11.544Z,100757.66
2022-09-30T00:11:40.900Z,100758.50
2022-09-30T00:14:13.614Z,100754.22
2022-09-30T00:16:41.590Z,100756.06
2022-09-30T00:19:11.043Z,100760.44
2022-09-30T00:21:39.350Z,100755.16
2022-09-30T00:24:07.979Z,100754.22
2022-09-30T00:26:36.521Z,100767.69
2022-09-30T00:29:05.218Z,100766.84
2022-09-30T00:31:35.735Z,100766.84
2022-09-30T00:34:11.284Z,100776.69
2022-09-30T00:36:44.349Z,100769.63
2022-09-30T00:39:15.038Z,100774.97
2022-09-30T00:41:43.458Z,100775.91
2022-09-30T00:44:57.182Z,100773.22
2022-09-30T00:47:55.925Z,100769.69
2022-09-30T00:50:33.696Z,100775.16
2022-09-30T00:53:09.589Z,100775.16
2022-09-30T00:55:46.114Z,100769.81
2022-09-30T00:58:18.958Z,100772.47
2022-09-30T01:00:47.420Z,100767.25
2022-09-30T01:03:15.409Z,100767.25
2022-09-30T01:05:44.556Z,100775.25
2022-09-30T01:08:13.898Z,100778.78
2022-09-30T01:10:42.199Z,100770.84
2022-09-30T01:13:10.229Z,100778.00
2022-09-30T01:16:08.472Z,100774.47
2022-09-30T01:18:48.281Z,100772.66
2022-09-30T01:21:46.223Z,100782.63
2022-09-30T01:24:33.924Z,100780.81
2022-09-30T01:27:36.867Z,100779.94
2022-09-30T01:30:20.223Z,100771.03
2022-09-30T01:33:08.200Z,100769.31
2022-09-30T01:35:48.915Z,100773.81
2022-09-30T01:38:29.424Z,100775.75
2022-09-30T01:41:06.908Z,100776.59
2022-09-30T01:43:44.735Z,100780.13
2022-09-30T01:46:22.658Z,100786.44
2022-09-30T01:49:02.864Z,100776.59
2022-09-30T01:51:35.966Z,100773.91
2022-09-30T01:54:08.740Z,100773.06
2022-09-30T01:56:43.255Z,100770.38
2022-09-30T01:59:17.462Z,100770.47
2022-09-30T02:01:53.214Z,100764.25
2022-09-30T02:04:27.675Z,100766.94
2022-09-30T02:07:01.010Z,100765.22
2022-09-30T02:09:36.015Z,100764.25
2022-09-30T02:12:11.443Z,100765.22
2022-09-30T02:14:43.484Z,100767.03
2022-09-30T02:17:16.703Z,100766.19
2022-09-30T02:19:48.876Z,100782.25
2022-09-30T02:22:21.437Z,100773.31
2022-09-30T02:24:54.526Z,100773.31
2022-09-30T02:27:28.069Z,100777.81
2022-09-30T02:30:00.365Z,100778.69
2022-09-30T02:32:31.348Z,100781.47
2022-09-30T02:35:06.878Z,100785.09
2022-09-30T02:37:38.793Z,100785.94
2022-09-30T02:40:11.870Z,100790.75
2022-09-30T02:42:42.067Z,100789.22
2022-09-30T02:45:16.500Z,100788.50
2022-09-30T02:47:59.526Z,100782.19
2022-09-30T02:50:33.194Z,100792.88
2022-09-30T02:53:15.558Z,100783.91
2022-09-30T02:55:57.190Z,100790.09
2022-09-30T02:58:27.349Z,100786.53
2022-09-30T03:00:56.901Z,100787.38
2022-09-30T03:03:30.861Z,100784.59
2022-09-30T03:06:00.409Z,100790.81
2022-09-30T03:08:28.429Z,100786.31
2022-09-30T03:10:56.486Z,100794.25
2022-09-30T03:13:54.825Z,100795.97
2022-09-30T03:16:36.224Z,100789.84
2022-09-30T03:19:24.031Z,100793.47
2022-09-30T03:22:13.129Z,100802.28
2022-09-30T03:24:54.783Z,100791.59
2022-09-30T03:27:32.524Z,100789.84
2022-09-30T03:30:05.436Z,100794.44
2022-09-30T03:32:50.764Z,100804.19
2022-09-30T03:35:27.210Z,100807.81
2022-09-30T03:38:03.059Z,100819.50
2022-09-30T03:40:38.562Z,100830.19
2022-09-30T03:43:10.929Z,100825.75
2022-09-30T03:45:46.715Z,100826.66
2022-09-30T03:48:16.540Z,100824.88
2022-09-30T03:50:45.417Z,100827.56
2022-09-30T03:53:14.935Z,100836.53
2022-09-30T03:55:48.940Z,100837.41
2022-09-30T03:58:17.329Z,100836.53
2022-09-30T04:00:50.640Z,100834.81
2022-09-30T04:03:19.752Z,100833.06
2022-09-30T04:05:48.530Z,100827.84
2022-09-30T04:08:18.243Z,100828.69
2022-09-30T04:10:46.494Z,100829.53
2022-09-30T04:13:14.429Z,100842.91
2022-09-30T04:15:42.369Z,100852.75
2022-09-30T04:18:10.355Z,100851.91
2022-09-30T04:20:39.771Z,100857.25
2022-09-30T04:23:07.771Z,100860.88
2022-09-30T04:25:37.152Z,100853.84
2022-09-30T04:28:05.073Z,100853.84
2022-09-30T04:30:33.831Z,100862.78
2022-09-30T04:33:01.857Z,100869.00
2022-09-30T04:35:30.343Z,100869.09
2022-09-30T04:38:01.204Z,100879.78
2022-09-30T04:40:29.203Z,100881.59
2022-09-30T04:42:59.259Z,100879.69
2022-09-30T04:45:27.237Z,100870.81
2022-09-30T04:47:55.119Z,100878.84
2022-09-30T04:50:25.347Z,100877.22
2022-09-30T04:52:57.834Z,100871.88
2022-09-30T04:55:25.857Z,100884.38
2022-09-30T04:57:53.762Z,100887.06
2022-09-30T05:00:25.019Z,100887.81
2022-09-30T05:02:53.648Z,100886.09
2022-09-30T05:05:21.761Z,100889.63
2022-09-30T05:07:49.689Z,100902.03
2022-09-30T05:10:17.954Z,100899.38
2022-09-30T05:12:46.011Z,100898.41
2022-09-30T05:15:14.043Z,100898.34
2022-09-30T05:17:45.342Z,100897.38
2022-09-30T05:20:14.890Z,100897.28
2022-09-30T05:22:45.499Z,100898.00
2022-09-30T05:25:13.473Z,100894.28
2022-09-30T05:27:41.403Z,100893.31
2022-09-30T05:30:10.454Z,100900.41
2022-09-30T05:32:38.369Z,100894.00
2022-09-30T05:35:12.177Z,100901.06
2022-09-30T05:37:40.329Z,100894.09
2022-09-30T05:40:09.486Z,100897.81
2022-09-30T05:42:38.057Z,100903.16
2022-09-30T05:45:07.093Z,100903.16
2022-09-30T05:47:35.762Z,100912.16
2022-09-30T05:50:03.767Z,100918.25
2022-09-30T05:52:33.163Z,100930.69
2022-09-30T05:55:01.655Z,100928.88
2022-09-30T05:57:30.138Z,100943.00
2022-09-30T05:59:58.172Z,100940.25
2022-09-30T06:02:26.688Z,100951.81
2022-09-30T06:04:56.869Z,100955.25
2022-09-30T06:07:24.879Z,100946.28
2022-09-30T06:09:56.178Z,100955.06
2022-09-30T06:12:26.253Z,100946.97
2022-09-30T06:14:54.226Z,100944.31
2022-09-30T06:17:22.717Z,100945.16
2022-09-30T06:19:50.913Z,100949.66
2022-09-30T06:22:20.030Z,100953.25
2022-09-30T06:24:50.428Z,100957.00
2022-09-30T06:27:23.636Z,100962.34
2022-09-30T06:29:54.572Z,100960.59
2022-09-30T06:32:22.545Z,100977.53
2022-09-30T06:34:52.571Z,100974.09
2022-09-30T06:37:20.781Z,100975.81
2022-09-30T06:39:52.022Z,100974.88
2022-09-30T06:42:20.201Z,100972.19
2022-09-30T06:44:53.487Z,100976.59
2022-09-30T06:47:25.578Z,100973.81
2022-09-30T06:49:58.692Z,100956.91
2022-09-30T06:52:27.441Z,100969.25
2022-09-30T06:54:56.722Z,100968.38
2022-09-30T06:57:26.792Z,100971.81
2022-09-30T06:59:56.234Z,100977.06
2022-09-30T07:02:24.506Z,100968.09
2022-09-30T07:04:52.540Z,100960.94
2022-09-30T07:07:22.341Z,100967.03
2022-09-30T07:09:50.351Z,100964.38
2022-09-30T07:12:18.489Z,100975.84
2022-09-30T07:14:46.980Z,100962.47
2022-09-30T07:17:16.235Z,100967.84
2022-09-30T07:19:44.184Z,100966.88
2022-09-30T07:22:31.942Z,100970.34
2022-09-30T07:25:01.211Z,100971.19
2022-09-30T07:27:30.940Z,100963.06
2022-09-30T07:30:13.302Z,100970.16
2022-09-30T07:32:47.549Z,100975.41
2022-09-30T07:35:15.534Z,100975.41
2022-09-30T07:37:43.752Z,100970.91
2022-09-30T07:40:14.391Z,100973.47
2022-09-30T07:42:46.015Z,100980.56
2022-09-30T07:45:19.254Z,100982.28
2022-09-30T07:47:53.469Z,100978.66
2022-09-30T07:50:22.099Z,100985.81
2022-09-30T07:52:50.002Z,100980.38
2022-09-30T07:55:17.936Z,100976.84
2022-09-30T07:57:45.902Z,100980.28
2022-09-30T08:00:37.793Z,100978.47
2022-09-30T08:03:03.731Z,100973.97
2022-09-30T08:05:31.740Z,100974.84
2022-09-30T08:07:59.703Z,100975.63
2022-09-30T08:10:27.658Z,100986.34
2022-09-30T08:12:58.037Z,100975.53
2022-09-30T08:15:27.722Z,100977.22
2022-09-30T08:17:55.681Z,100970.94
2022-09-30T08:20:25.101Z,100983.25
2022-09-30T08:22:54.050Z,100974.38
2022-09-30T08:25:22.651Z,100971.63
2022-09-30T08:27:50.614Z,100971.53
2022-09-30T08:30:18.813Z,100968.84
2022-09-30T08:32:46.717Z,100973.25
2022-09-30T08:35:14.676Z,100976.69
2022-09-30T08:37:43.970Z,100970.38
2022-09-30T08:40:20.516Z,100976.53
2022-09-30T08:43:04.660Z,100980.91
2022-09-30T08:45:41.893Z,100980.81
2022-09-30T08:48:22.562Z,100981.47
2022-09-30T08:51:02.199Z,100978.81
2022-09-30T08:53:35.800Z,100979.59
2022-09-30T08:56:05.234Z,100980.44
2022-09-30T08:58:36.556Z,100987.41
2022-09-30T09:01:14.510Z,100985.63
2022-09-30T09:03:45.372Z,100989.03
2022-09-30T09:06:28.261Z,100986.25
2022-09-30T09:09:19.735Z,100985.34
2022-09-30T09:12:00.559Z,100986.94
2022-09-30T09:14:43.339Z,100987.84
2022-09-30T09:17:21.806Z,100979.69
2022-09-30T09:20:00.197Z,100977.75
2022-09-30T09:22:28.641Z,100975.97
2022-09-30T09:25:01.011Z,100976.72
2022-09-30T09:27:38.665Z,100974.81
2022-09-30T09:30:09.021Z,100981.94
2022-09-30T09:32:37.671Z,100974.63
2022-09-30T09:35:15.666Z,100971.03
2022-09-30T09:38:13.556Z,100972.63
2022-09-30T09:40:57.477Z,100969.09
2022-09-30T09:43:35.020Z,100973.41
2022-09-30T09:46:13.244Z,100980.59
2022-09-30T09:48:41.539Z,100976.09
2022-09-30T09:51:17.354Z,100975.06
2022-09-30T09:53:50.378Z,100976.66
2022-09-30T09:56:21.291Z,100996.28
2022-09-30T09:59:10.181Z,101002.41
2022-09-30T10:01:42.969Z,100999.72
2022-09-30T10:04:17.818Z,101000.47
2022-09-30T10:06:49.711Z,100987.88
2022-09-30T10:09:35.398Z,100987.88
2022-09-30T10:12:30.168Z,100983.25
2022-09-30T10:15:01.429Z,100984.88
2022-09-30T10:17:31.642Z,100984.03
2022-09-30T10:20:03.986Z,100991.88
2022-09-30T10:22:33.682Z,100989.94
2022-09-30T10:25:25.260Z,100975.59
2022-09-30T10:27:58.260Z,100975.50
2022-09-30T10:30:52.228Z,100979.91
2022-09-30T10:33:30.612Z,100978.00
2022-09-30T10:36:04.274Z,100969.97
2022-09-30T10:38:34.794Z,100967.16
2022-09-30T10:41:05.082Z,100965.28
2022-09-30T10:43:40.573Z,100966.13
2022-09-30T10:46:27.516Z,100974.91
2022-09-30T10:48:57.644Z,100976.66
2022-09-30T10:51:30.001Z,100963.16
2022-09-30T10:53:58.395Z,100971.00
2022-09-30T10:56:45.580Z,100969.06
2022-09-30T10:59:21.058Z,100972.53
2022-09-30T11:01:57.453Z,100975.09
2022-09-30T11:04:38.914Z,100971.44
2022-09-30T11:07:18.954Z,100974.78
2022-09-30T11:09:54.520Z,100966.66
2022-09-30T11:12:31.524Z,100970.09
2022-09-30T11:15:09.325Z,100966.44
2022-09-30T11:17:44.520Z,100960.88
2022-09-30T11:20:19.631Z,100956.31
2022-09-30T11:22:55.485Z,100961.56
2022-09-30T11:25:28.758Z,100954.28
2022-09-30T11:28:18.070Z,100956.84
2022-09-30T11:30:58.627Z,100950.53
2022-09-30T11:33:43.355Z,100957.63
2022-09-30T11:36:22.546Z,100944.00
2022-09-30T11:39:08.952Z,100954.63
2022-09-30T11:41:39.771Z,100943.91
2022-09-30T11:44:23.414Z,100946.47
2022-09-30T11:47:09.515Z,100942.81
2022-09-30T11:50:06.058Z,100944.56
2022-09-30T11:52:47.186Z,100940.91
2022-09-30T11:55:44.792Z,100939.97
2022-09-30T11:58:39.794Z,100941.69
2022-09-30T12:01:23.490Z,100929.16
2022-09-30T12:04:02.487Z,100922.84
2022-09-30T12:06:35.198Z,100917.47
2022-09-30T12:09:10.566Z,100928.09
2022-09-30T12:11:45.744Z,100928.94
2022-09-30T12:14:19.525Z,100926.25
2022-09-30T12:16:51.179Z,100924.53
2022-09-30T12:19:29.181Z,100915.53
2022-09-30T12:22:03.058Z,100916.31
2022-09-30T12:24:37.981Z,100923.50
2022-09-30T12:27:06.737Z,100915.34
2022-09-30T12:29:58.235Z,100922.63
2022-09-30T12:33:15.298Z,100920.69
2022-09-30T12:36:21.845Z,100912.75
2022-09-30T12:39:08.912Z,100906.53
2022-09-30T12:42:00.734Z,100906.53
2022-09-30T12:45:10.509Z,100897.72
2022-09-30T12:47:47.693Z,100897.72
2022-09-30T12:50:23.234Z,100895.44
2022-09-30T12:52:53.918Z,100893.03
2022-09-30T12:55:31.264Z,100894.31
2022-09-30T12:58:02.296Z,100891.84
2022-09-30T13:00:34.650Z,100892.91
2022-09-30T13:03:15.504Z,100889.34
2022-09-30T13:05:54.390Z,100891.84
2022-09-30T13:08:26.408Z,100894.44
2022-09-30T13:10:59.202Z,100890.66
2022-09-30T13:13:30.851Z,100878.13
2022-09-30T13:16:03.549Z,100884.25
2022-09-30T13:19:00.971Z,100885.00
2022-09-30T13:21:32.239Z,100881.38
2022-09-30T13:24:00.628Z,100868.81
2022-09-30T13:27:10.551Z,100874.06
2022-09-30T13:29:48.493Z,100867.84
2022-09-30T13:32:32.850Z,100863.25
2022-09-30T13:35:02.134Z,100857.88
2022-09-30T13:37:39.935Z,100864.97
2022-09-30T13:40:32.738Z,100855.22
2022-09-30T13:43:17.680Z,100855.22
2022-09-30T13:45:50.921Z,100854.75
2022-09-30T13:48:23.479Z,100853.25
2022-09-30T13:50:53.419Z,100848.72
2022-09-30T13:53:29.644Z,100854.84
2022-09-30T13:55:59.539Z,100843.25
2022-09-30T13:59:01.363Z,100838.75
2022-09-30T14:01:47.267Z,100840.69
2022-09-30T14:04:36.530Z,100837.03
2022-09-30T14:07:16.437Z,100830.69
2022-09-30T14:10:09.123Z,100829.75
2022-09-30T14:13:03.124Z,100826.97
2022-09-30T14:16:01.799Z,100825.13
2022-09-30T14:18:54.992Z,100819.78
2022-09-30T14:21:36.978Z,100820.44
2022-09-30T14:24:12.007Z,100819.56
2022-09-30T14:26:59.748Z,100814.31
2022-09-30T14:29:40.267Z,100817.41
2022-09-30T14:32:14.780Z,100801.63
2022-09-30T14:34:43.947Z,100808.06
2022-09-30T14:37:19.364Z,100797.44
2022-09-30T14:39:49.524Z,100803.78
2022-09-30T14:42:25.253Z,100803.84
2022-09-30T14:44:55.942Z,100805.69
2022-09-30T14:47:26.843Z,100805.56
2022-09-30T14:49:56.278Z,100807.31
2022-09-30T14:52:36.527Z,100810.66
2022-09-30T14:55:23.529Z,100797.13
2022-09-30T14:57:51.494Z,100802.38
2022-09-30T15:00:27.909Z,100798.75
2022-09-30T15:02:56.148Z,100791.44
2022-09-30T15:05:26.705Z,100802.16
2022-09-30T15:07:55.644Z,100800.34
2022-09-30T15:10:25.202Z,100803.88
2022-09-30T15:12:55.896Z,100801.19
2022-09-30T15:15:34.599Z,100800.25
2022-09-30T15:18:17.734Z,100794.03
2022-09-30T15:20:47.223Z,100792.22
2022-09-30T15:23:19.162Z,100795.84
2022-09-30T15:25:47.160Z,100796.59
2022-09-30T15:28:15.285Z,100803.69
2022-09-30T15:30:43.520Z,100797.47
2022-09-30T15:33:18.836Z,100798.31
2022-09-30T15:35:48.225Z,100801.84
2022-09-30T15:38:22.175Z,100792.94
2022-09-30T15:40:59.120Z,100796.59
2022-09-30T15:43:39.693Z,100807.22
2022-09-30T15:46:23.471Z,100792.00
2022-09-30T15:48:51.454Z,100801.84
2022-09-30T15:51:32.788Z,100792.94
2022-09-30T15:54:02.034Z,100799.16
2022-09-30T15:56:36.139Z,100797.38
2022-09-30T15:59:06.437Z,100801.78
2022-09-30T16:01:37.934Z,100799.16
2022-09-30T16:04:10.866Z,100799.09
2022-09-30T16:06:47.708Z,100795.56
2022-09-30T16:09:30.826Z,100800.06
2022-09-30T16:12:05.227Z,100794.78
2022-09-30T16:14:37.359Z,100801.84
2022-09-30T16:17:06.949Z,100808.97
2022-09-30T16:19:35.553Z,100803.47
2022-09-30T16:22:04.864Z,100806.16
2022-09-30T16:25:02.414Z,100796.28
2022-09-30T16:27:32.742Z,100792.63
2022-09-30T16:30:01.378Z,100796.19
2022-09-30T16:32:33.931Z,100796.09
2022-09-30T16:35:01.900Z,100801.38
2022-09-30T16:37:31.216Z,100803.97
2022-09-30T16:40:10.396Z,100800.19
2022-09-30T16:42:38.612Z,100789.38
2022-09-30T16:45:09.887Z,100790.97
2022-09-30T16:47:37.810Z,100795.38
2022-09-30T16:50:17.645Z,100793.44
2022-09-30T16:52:47.001Z,100796.91
2022-09-30T16:57:48.225Z,100784.97
2022-09-30T17:00:19.075Z,100792.50
2022-09-30T17:02:50.758Z,100787.22
2022-09-30T17:05:21.674Z,100790.22
2022-09-30T17:07:53.111Z,100783.44
2022-09-30T17:10:24.140Z,100792.47
2022-09-30T17:12:53.532Z,100785.47
2022-09-30T17:15:22.029Z,100784.59
2022-09-30T17:17:51.341Z,100785.47
2022-09-30T17:20:19.269Z,100781.81
2022-09-30T17:22:47.927Z,100779.91
2022-09-30T17:25:17.933Z,100768.97
2022-09-30T17:27:50.016Z,100775.00
2022-09-30T17:30:18.376Z,100775.00
2022-09-30T17:32:46.307Z,100781.13
2022-09-30T17:35:14.709Z,100768.56
2022-09-30T17:37:45.564Z,100769.41
2022-09-30T17:40:32.342Z,100772.97
2022-09-30T17:43:14.480Z,100769.31
2022-09-30T17:45:44.042Z,100774.56
2022-09-30T17:48:12.595Z,100783.47
2022-09-30T17:50:42.281Z,100769.22
2022-09-30T17:53:13.125Z,100773.59
2022-09-30T17:55:41.348Z,100765.56
2022-09-30T17:58:12.469Z,100761.81
2022-09-30T18:00:40.625Z,100761.91
2022-09-30T18:03:11.022Z,100753.00
2022-09-30T18:05:39.124Z,100753.75
2022-09-30T18:08:07.017Z,100760.06
2022-09-30T18:10:37.304Z,100758.25
2022-09-30T18:13:05.315Z,100762.75
2022-09-30T18:15:39.123Z,100765.44
2022-09-30T18:18:10.982Z,100762.75
2022-09-30T18:20:44.926Z,100762.75
2022-09-30T18:23:16.473Z,100763.59
2022-09-30T18:25:44.795Z,100774.34
2022-09-30T18:28:14.109Z,100772.53
2022-09-30T18:30:43.871Z,100774.34
2022-09-30T18:33:11.905Z,100760.50
2022-09-30T18:35:40.643Z,100760.72
2022-09-30T18:38:09.110Z,100750.00
2022-09-30T18:40:37.977Z,100741.81
2022-09-30T18:43:06.050Z,100740.00
2022-09-30T18:45:36.633Z,100741.75
2022-09-30T18:48:08.579Z,100737.09
2022-09-30T18:50:37.395Z,100735.19
2022-09-30T18:53:09.406Z,100736.91
2022-09-30T18:55:38.633Z,100729.72
2022-09-30T18:58:06.758Z,100721.56
2022-09-30T19:00:34.831Z,100720.69
2022-09-30T19:03:02.736Z,100729.63
2022-09-30T19:05:32.032Z,100718.78
2022-09-30T19:08:02.362Z,100712.56
2022-09-30T19:10:33.042Z,100708.91
2022-09-30T19:13:01.377Z,100707.06
2022-09-30T19:15:29.273Z,100702.56
2022-09-30T19:17:57.490Z,100697.94
2022-09-30T19:20:25.631Z,100699.78
2022-09-30T19:22:54.949Z,100696.97
2022-09-30T19:25:22.861Z,100701.38
2022-09-30T19:27:50.968Z,100682.69
2022-09-30T19:30:19.656Z,100681.63
2022-09-30T19:32:47.587Z,100680.53
2022-09-30T19:35:17.140Z,100674.31
2022-09-30T19:37:58.898Z,100661.88
2022-09-30T19:43:05.048Z,100661.88
2022-09-30T19:45:35.399Z,100660.81
2022-09-30T19:48:03.359Z,100663.63
2022-09-30T19:50:31.244Z,100662.75
2022-09-30T19:52:59.632Z,100667.16
2022-09-30T19:55:27.644Z,100662.56
2022-09-30T19:57:56.997Z,100664.25
2022-09-30T20:00:24.995Z,100652.44
2022-09-30T20:02:52.907Z,100651.56
2022-09-30T20:05:21.601Z,100646.22
2022-09-30T20:07:51.235Z,100636.25
2022-09-30T20:10:19.784Z,100632.72
2022-09-30T20:12:47.784Z,100614.78
2022-09-30T20:15:34.815Z,100624.53
2022-09-30T20:18:02.712Z,100604.78
2022-09-30T20:20:37.226Z,100599.41
2022-09-30T20:23:05.292Z,100598.47
2022-09-30T20:25:35.525Z,100597.50
2022-09-30T20:28:04.829Z,100585.06
2022-09-30T20:30:35.243Z,100578.84
2022-09-30T20:33:03.204Z,100578.72
2022-09-30T20:35:35.958Z,100575.03
2022-09-30T20:38:10.288Z,100567.00
2022-09-30T20:40:38.358Z,100562.47
2022-09-30T20:43:07.803Z,100570.44
2022-09-30T20:45:40.087Z,100560.56
2022-09-30T20:48:09.494Z,100554.34
2022-09-30T20:50:43.399Z,100564.94
2022-09-30T20:53:13.865Z,100555.06
2022-09-30T20:55:44.482Z,100556.91
2022-09-30T20:58:13.737Z,100559.59
2022-09-30T21:00:43.836Z,100549.69
2022-09-30T21:03:13.740Z,100541.66
2022-09-30T21:05:41.994Z,100530.06
2022-09-30T21:08:09.909Z,100532.63
2022-09-30T21:10:38.677Z,100526.31
2022-09-30T21:13:11.377Z,100527.25
2022-09-30T21:15:43.061Z,100527.25
2022-09-30T21:18:11.224Z,100528.16
2022-09-30T21:20:39.141Z,100534.38
2022-09-30T21:23:07.060Z,100523.63
2022-09-30T21:25:34.983Z,100530.69
2022-09-30T21:28:03.390Z,100512.03
2022-09-30T21:30:31.437Z,100521.78
2022-09-30T21:33:00.690Z,100512.91
2022-09-30T21:35:30.720Z,100511.16
2022-09-30T21:37:58.642Z,100512.03
2022-09-30T21:40:28.295Z,100508.47
2022-09-30T21:42:56.261Z,100511.16
2022-09-30T21:45:25.270Z,100505.78
2022-09-30T21:48:03.294Z,100516.53
2022-09-30T21:50:32.202Z,100511.16
2022-09-30T21:53:04.614Z,100509.44
2022-09-30T21:55:33.440Z,100499.56
2022-09-30T21:58:01.555Z,100509.44
2022-09-30T22:00:29.595Z,100504.94
2022-09-30T22:02:58.589Z,100502.25
2022-09-30T22:05:27.892Z,100495.06
2022-09-30T22:07:55.793Z,100493.34
2022-09-30T22:10:23.677Z,100488.84
2022-09-30T22:12:51.605Z,100497.88
2022-09-30T22:15:19.630Z,100480.78
2022-09-30T22:17:47.515Z,100479.09
2022-09-30T22:20:15.626Z,100477.25
2022-09-30T22:22:44.934Z,100482.63
2022-09-30T22:25:12.899Z,100475.56
2022-09-30T22:27:40.838Z,100471.16
2022-09-30T22:30:10.686Z,100475.56
2022-09-30T22:32:38.623Z,100463.13
2022-09-30T22:35:25.120Z,100470.19
2022-09-30T22:38:11.706Z,100471.03
2022-09-30T22:40:39.653Z,100458.31
2022-09-30T22:43:07.630Z,100455.88
2022-09-30T22:45:36.126Z,100444.28
2022-09-30T22:48:04.653Z,100442.44
2022-09-30T22:50:36.518Z,100444.28
2022-09-30T22:53:05.764Z,100438.06
2022-09-30T22:55:34.879Z,100438.91
2022-09-30T22:58:02.798Z,100434.41
2022-09-30T23:00:31.488Z,100422.91
2022-09-30T23:02:59.406Z,100429.16
2022-09-30T23:05:27.707Z,100425.59
2022-09-30T23:07:55.568Z,100422.06
2022-09-30T23:10:25.343Z,100416.69
2022-09-30T23:12:53.433Z,100419.38
2022-09-30T23:15:21.360Z,100413.16
2022-09-30T23:17:49.333Z,100406.09
2022-09-30T23:20:17.409Z,100407.06
2022-09-30T23:22:45.321Z,100399.88
2022-09-30T23:25:13.468Z,100399.88
2022-09-30T23:27:42.828Z,100381.19
2022-09-30T23:30:11.466Z,100371.34
2022-09-30T23:32:39.410Z,100373.16
2022-09-30T23:35:08.158Z,100366.09
2022-09-30T23:37:36.612Z,100360.84
2022-09-30T23:40:05.106Z,100365.22
2022-09-30T23:42:33.284Z,100367.06
2022-09-30T23:45:05.229Z,100371.56
2022-09-30T23:47:34.444Z,100362.69
2022-09-30T23:50:02.372Z,100367.16
2022-09-30T23:52:30.376Z,100360.94
2022-09-30T23:54:58.371Z,100358.25
2022-09-30T23:57:26.306Z,100358.25
2022-09-30T23:59:54.253Z,100361.78
